DAH2000 DAAG-LEPA
Flight info
| Callsign | DAH2000 |
|---|---|
| Flight time | N/A |
| Altitude | 22000 |
| Route | MOGIL N859 OSGAL |
| Aircraft | B738/M-SDE2E3FGHIRWXY/LB1 |
Departure
| Time | 2026-05-05 15:07 |
|---|---|
| Airport | Houari Boumediene Airport (DAAG) |
Arrival
| Time | N/A |
|---|---|
| Airport | Palma de Mallorca Airport (LEPA) |
| Time | Latitude | Longitude | Altitude | Speed | Heading |
|---|---|---|---|---|---|
| 2026-05-05 14:46 | 36.69685 | 3.20595 | 65 ft | 0 kts | 19° |
| 2026-05-05 15:01 | 36.69683 | 3.20594 | 41 ft | 2 kts | 19° |
| 2026-05-05 15:01 | 36.69659 | 3.20583 | 61 ft | 4 kts | 20° |
| 2026-05-05 15:01 | 36.69634 | 3.20572 | 60 ft | 4 kts | 20° |
| 2026-05-05 15:02 | 36.69614 | 3.20561 | 61 ft | 4 kts | 42° |
| 2026-05-05 15:02 | 36.69602 | 3.20535 | 62 ft | 4 kts | 86° |
| 2026-05-05 15:02 | 36.69602 | 3.20502 | 67 ft | 4 kts | 94° |
| 2026-05-05 15:02 | 36.69603 | 3.20492 | 61 ft | 0 kts | 91° |
| 2026-05-05 15:04 | 36.69602 | 3.20573 | 62 ft | 16 kts | 91° |
| 2026-05-05 15:05 | 36.69535 | 3.20818 | 69 ft | 16 kts | 159° |
| 2026-05-05 15:05 | 36.69431 | 3.20862 | 66 ft | 17 kts | 161° |
| 2026-05-05 15:05 | 36.69293 | 3.20921 | 62 ft | 24 kts | 161° |
| 2026-05-05 15:06 | 36.69156 | 3.20970 | 68 ft | 15 kts | 176° |
| 2026-05-05 15:06 | 36.69114 | 3.20944 | 72 ft | 6 kts | 244° |
| 2026-05-05 15:06 | 36.69115 | 3.20848 | 75 ft | 32 kts | 272° |
| 2026-05-05 15:06 | 36.69130 | 3.20268 | 74 ft | 101 kts | 271° |
| 2026-05-05 15:07 | 36.69159 | 3.19174 | 96 ft | 151 kts | 274° |
| 2026-05-05 15:07 | 36.69202 | 3.17810 | 640 ft | 161 kts | 272° |
| 2026-05-05 15:07 | 36.69240 | 3.16405 | 1308 ft | 164 kts | 272° |
| 2026-05-05 15:07 | 36.69358 | 3.14990 | 1922 ft | 169 kts | 292° |
| 2026-05-05 15:08 | 36.70175 | 3.13857 | 2231 ft | 193 kts | 335° |
| 2026-05-05 15:08 | 36.71574 | 3.13613 | 2471 ft | 217 kts | 2° |
| 2026-05-05 15:08 | 36.73163 | 3.13698 | 2671 ft | 238 kts | 2° |
| 2026-05-05 15:08 | 36.74885 | 3.13791 | 2908 ft | 258 kts | 2° |
| 2026-05-05 15:09 | 36.76733 | 3.13890 | 3332 ft | 273 kts | 2° |
| 2026-05-05 15:09 | 36.78648 | 3.13989 | 4064 ft | 278 kts | 2° |
| 2026-05-05 15:09 | 36.80605 | 3.14087 | 4764 ft | 285 kts | 2° |
| 2026-05-05 15:09 | 36.82608 | 3.14184 | 5513 ft | 288 kts | 1° |
| 2026-05-05 15:10 | 36.84599 | 3.14279 | 6288 ft | 292 kts | 0° |
| 2026-05-05 15:10 | 36.86646 | 3.14375 | 7046 ft | 296 kts | 359° |
| 2026-05-05 15:10 | 36.88708 | 3.14471 | 7870 ft | 298 kts | 358° |
| 2026-05-05 15:10 | 36.90793 | 3.14566 | 8696 ft | 301 kts | 357° |
| 2026-05-05 15:11 | 36.92900 | 3.14661 | 9544 ft | 305 kts | 356° |
| 2026-05-05 15:11 | 36.95032 | 3.14757 | 10341 ft | 310 kts | 356° |
| 2026-05-05 15:11 | 36.97269 | 3.14851 | 10607 ft | 335 kts | 356° |
| 2026-05-05 15:11 | 36.99674 | 3.14949 | 10914 ft | 355 kts | 356° |
| 2026-05-05 15:12 | 37.02165 | 3.15060 | 11613 ft | 359 kts | 356° |
| 2026-05-05 15:12 | 37.04661 | 3.15179 | 12530 ft | 358 kts | 356° |
| 2026-05-05 15:12 | 37.07146 | 3.15299 | 13498 ft | 357 kts | 356° |
| 2026-05-05 15:12 | 37.09638 | 3.15417 | 14294 ft | 361 kts | 356° |
| 2026-05-05 15:13 | 37.12180 | 3.15533 | 14890 ft | 370 kts | 356° |
| 2026-05-05 15:13 | 37.14784 | 3.15649 | 15537 ft | 378 kts | 356° |
| 2026-05-05 15:13 | 37.17433 | 3.15769 | 16220 ft | 384 kts | 356° |
| 2026-05-05 15:13 | 37.20123 | 3.15891 | 16919 ft | 389 kts | 356° |
| 2026-05-05 15:14 | 37.22836 | 3.16017 | 17726 ft | 392 kts | 356° |
| 2026-05-05 15:14 | 37.25583 | 3.16143 | 18404 ft | 397 kts | 356° |
| 2026-05-05 15:14 | 37.28365 | 3.16270 | 18967 ft | 403 kts | 356° |